createdAt,value
2022-10-01T00:01:48.120Z,100.00
2022-10-01T00:06:19.484Z,100.00
2022-10-01T00:10:21.029Z,100.00
2022-10-01T00:14:22.890Z,100.00
2022-10-01T00:18:24.558Z,100.00
2022-10-01T00:22:26.124Z,100.00
2022-10-01T00:26:31.365Z,100.00
2022-10-01T00:30:37.253Z,100.00
2022-10-01T00:34:41.238Z,100.00
2022-10-01T00:38:42.773Z,100.00
2022-10-01T00:42:44.558Z,100.00
2022-10-01T00:46:46.571Z,100.00
2022-10-01T00:50:49.937Z,100.00
2022-10-01T00:55:03.627Z,100.00
2022-10-01T00:59:07.123Z,100.00
2022-10-01T01:03:11.029Z,100.00
2022-10-01T01:07:13.064Z,100.00
2022-10-01T01:11:33.193Z,100.00
2022-10-01T01:16:00.393Z,100.00
2022-10-01T01:20:06.352Z,100.00
2022-10-01T01:24:42.086Z,100.00
2022-10-01T01:28:50.616Z,100.00
2022-10-01T01:33:18.494Z,100.00
2022-10-01T01:37:26.751Z,100.00
2022-10-01T01:41:31.444Z,100.00
2022-10-01T01:45:40.077Z,100.00
2022-10-01T01:49:42.903Z,100.00
2022-10-01T01:53:44.784Z,100.00
2022-10-01T01:57:46.707Z,100.00
2022-10-01T02:01:49.582Z,100.00
2022-10-01T02:06:11.383Z,100.00
2022-10-01T02:10:28.535Z,100.00
2022-10-01T02:14:47.467Z,100.00
2022-10-01T02:18:59.119Z,100.00
2022-10-01T02:23:06.217Z,99.42
2022-10-01T02:27:14.030Z,99.17
2022-10-01T02:31:18.090Z,99.20
2022-10-01T02:35:22.015Z,100.00
2022-10-01T02:39:27.137Z,100.00
2022-10-01T02:43:39.481Z,100.00
2022-10-01T02:47:51.120Z,100.00
2022-10-01T02:52:13.267Z,100.00
2022-10-01T02:56:35.476Z,100.00
2022-10-01T03:00:37.033Z,99.29
2022-10-01T03:04:38.654Z,98.68
2022-10-01T03:08:53.724Z,98.20
2022-10-01T03:12:55.931Z,97.64
2022-10-01T03:16:57.579Z,96.84
2022-10-01T03:20:59.162Z,95.06
2022-10-01T03:25:00.715Z,94.75
2022-10-01T03:29:04.729Z,94.16
2022-10-01T03:33:06.286Z,94.70
2022-10-01T03:37:27.909Z,94.10
2022-10-01T03:41:29.583Z,94.10
2022-10-01T03:45:31.126Z,93.46
2022-10-01T03:49:38.765Z,92.51
2022-10-01T03:53:40.279Z,92.16
2022-10-01T03:57:50.259Z,92.16
2022-10-01T04:01:51.900Z,92.40
2022-10-01T04:05:53.523Z,94.10
2022-10-01T04:09:55.152Z,96.91
2022-10-01T04:13:58.010Z,100.00
2022-10-01T04:18:02.303Z,100.00
2022-10-01T04:22:03.842Z,100.00
2022-10-01T04:26:05.572Z,100.00
2022-10-01T04:30:09.895Z,100.00
2022-10-01T04:34:11.636Z,100.00
2022-10-01T04:38:17.167Z,100.00
2022-10-01T04:42:19.588Z,100.00
2022-10-01T04:46:21.286Z,100.00
2022-10-01T04:50:25.634Z,100.00
2022-10-01T04:54:27.202Z,100.00
2022-10-01T04:58:28.879Z,100.00
2022-10-01T05:02:30.648Z,100.00
2022-10-01T05:06:32.215Z,100.00
2022-10-01T05:10:34.016Z,100.00
2022-10-01T05:14:38.983Z,100.00
2022-10-01T05:18:40.633Z,100.00
2022-10-01T05:22:42.228Z,100.00
2022-10-01T05:26:43.787Z,100.00
2022-10-01T05:30:45.783Z,100.00
2022-10-01T05:34:52.662Z,100.00
2022-10-01T05:38:55.167Z,100.00
2022-10-01T05:43:00.291Z,100.00
2022-10-01T05:47:02.246Z,100.00
2022-10-01T05:51:06.889Z,100.00
2022-10-01T05:55:09.282Z,100.00
2022-10-01T05:59:12.068Z,100.00
2022-10-01T06:03:15.103Z,100.00
2022-10-01T06:07:16.644Z,100.00
2022-10-01T06:11:18.943Z,100.00
2022-10-01T06:15:20.568Z,100.00
2022-10-01T06:19:22.188Z,100.00
2022-10-01T06:23:26.148Z,100.00
2022-10-01T06:27:27.790Z,100.00
2022-10-01T06:31:29.782Z,100.00
2022-10-01T06:35:32.944Z,100.00
2022-10-01T06:39:34.464Z,100.00
2022-10-01T06:43:36.422Z,100.00
2022-10-01T06:47:38.257Z,100.00
2022-10-01T06:51:58.727Z,100.00
2022-10-01T06:56:05.619Z,100.00
2022-10-01T07:00:08.087Z,100.00
2022-10-01T07:04:10.644Z,100.00
2022-10-01T07:08:13.162Z,100.00
2022-10-01T07:12:14.772Z,100.00
2022-10-01T07:16:16.591Z,100.00
2022-10-01T07:20:20.741Z,100.00
2022-10-01T07:24:22.711Z,100.00
2022-10-01T07:28:27.320Z,100.00
2022-10-01T07:32:31.620Z,100.00
2022-10-01T07:36:33.435Z,100.00
2022-10-01T07:40:35.144Z,100.00
2022-10-01T07:44:36.750Z,100.00
2022-10-01T07:48:38.564Z,100.00
2022-10-01T07:52:40.168Z,100.00
2022-10-01T07:56:41.910Z,100.00
2022-10-01T08:00:43.631Z,100.00
2022-10-01T08:05:03.531Z,100.00
2022-10-01T08:09:06.190Z,100.00
2022-10-01T08:13:14.971Z,100.00
2022-10-01T08:17:16.676Z,100.00
2022-10-01T08:21:18.271Z,100.00
2022-10-01T08:25:19.949Z,100.00
2022-10-01T08:29:22.204Z,100.00
2022-10-01T08:33:23.749Z,100.00
2022-10-01T08:37:27.407Z,100.00
2022-10-01T08:41:54.878Z,100.00
2022-10-01T08:46:00.584Z,100.00
2022-10-01T08:50:39.616Z,100.00
2022-10-01T08:54:54.906Z,100.00
2022-10-01T08:59:03.728Z,100.00
2022-10-01T09:03:06.702Z,100.00
2022-10-01T09:07:31.089Z,100.00
2022-10-01T09:11:43.789Z,100.00
2022-10-01T09:15:56.340Z,100.00
2022-10-01T09:20:29.332Z,100.00
2022-10-01T09:24:40.841Z,100.00
2022-10-01T09:28:52.207Z,100.00
2022-10-01T09:33:11.680Z,100.00
2022-10-01T09:37:45.544Z,100.00
2022-10-01T09:41:48.383Z,100.00
2022-10-01T09:45:51.607Z,100.00
2022-10-01T09:49:53.482Z,100.00
2022-10-01T09:54:09.321Z,100.00
2022-10-01T09:58:18.486Z,100.00
2022-10-01T10:02:27.620Z,100.00
2022-10-01T10:11:01.823Z,100.00
2022-10-01T10:15:09.801Z,100.00
2022-10-01T10:19:28.354Z,100.00
2022-10-01T10:23:30.076Z,100.00
2022-10-01T10:27:37.874Z,100.00
2022-10-01T10:31:43.651Z,100.00
2022-10-01T10:35:45.296Z,100.00
2022-10-01T10:39:51.214Z,100.00
2022-10-01T10:44:04.791Z,100.00
2022-10-01T10:48:14.622Z,100.00
2022-10-01T10:52:30.176Z,100.00
2022-10-01T10:56:32.244Z,100.00
2022-10-01T11:00:43.891Z,100.00
2022-10-01T11:04:46.156Z,100.00
2022-10-01T11:08:57.493Z,100.00
2022-10-01T11:13:32.822Z,100.00
2022-10-01T11:17:58.701Z,100.00
2022-10-01T11:22:12.943Z,100.00
2022-10-01T11:26:29.592Z,100.00
2022-10-01T11:31:12.831Z,100.00
2022-10-01T11:35:28.509Z,100.00
2022-10-01T11:39:34.339Z,100.00
2022-10-01T11:43:57.650Z,100.00
2022-10-01T11:48:02.306Z,100.00
2022-10-01T11:52:14.991Z,100.00
2022-10-01T11:56:40.588Z,100.00
2022-10-01T12:00:48.453Z,100.00
2022-10-01T12:04:58.324Z,100.00
2022-10-01T12:09:16.929Z,100.00
2022-10-01T12:13:36.712Z,100.00
2022-10-01T12:17:46.928Z,100.00
2022-10-01T12:21:56.724Z,100.00
2022-10-01T12:26:13.420Z,100.00
2022-10-01T12:30:23.638Z,100.00
2022-10-01T12:34:54.247Z,100.00
2022-10-01T12:39:35.994Z,100.00
2022-10-01T12:43:43.571Z,100.00
2022-10-01T12:47:50.099Z,100.00
2022-10-01T12:52:18.167Z,100.00
2022-10-01T12:56:39.173Z,100.00
2022-10-01T13:01:17.850Z,100.00
2022-10-01T13:05:49.571Z,100.00
2022-10-01T13:10:06.978Z,100.00
2022-10-01T13:14:19.078Z,100.00
2022-10-01T13:19:05.222Z,100.00
2022-10-01T13:23:24.148Z,100.00
2022-10-01T13:27:46.745Z,100.00
2022-10-01T13:32:01.394Z,100.00
2022-10-01T13:36:05.818Z,100.00
2022-10-01T13:40:24.546Z,100.00
2022-10-01T13:44:34.655Z,100.00
2022-10-01T13:48:44.443Z,100.00
2022-10-01T13:52:46.085Z,100.00
2022-10-01T13:56:47.737Z,100.00
2022-10-01T14:00:54.662Z,100.00
2022-10-01T14:05:03.696Z,100.00
2022-10-01T14:09:14.252Z,100.00
2022-10-01T14:13:34.616Z,100.00
2022-10-01T14:17:36.941Z,100.00
2022-10-01T14:21:45.308Z,100.00
2022-10-01T14:25:49.260Z,100.00
2022-10-01T14:30:02.666Z,100.00
2022-10-01T14:34:28.259Z,100.00
2022-10-01T14:38:30.955Z,100.00
2022-10-01T14:42:32.516Z,100.00
2022-10-01T14:46:35.858Z,100.00
2022-10-01T14:50:38.357Z,100.00
2022-10-01T14:54:47.316Z,100.00
2022-10-01T14:58:55.606Z,100.00
2022-10-01T15:03:06.156Z,100.00
2022-10-01T15:07:13.764Z,100.00
2022-10-01T15:11:29.128Z,100.00
2022-10-01T15:15:39.758Z,100.00
2022-10-01T15:19:45.018Z,100.00
2022-10-01T15:23:48.311Z,100.00
2022-10-01T15:27:50.051Z,100.00
2022-10-01T15:31:55.816Z,100.00
2022-10-01T15:36:16.836Z,100.00
2022-10-01T15:40:27.357Z,100.00
2022-10-01T15:44:40.843Z,100.00
2022-10-01T15:48:42.652Z,100.00
2022-10-01T15:52:50.746Z,100.00
2022-10-01T15:56:52.674Z,100.00
2022-10-01T16:01:26.533Z,100.00
2022-10-01T16:05:45.700Z,100.00
2022-10-01T16:09:56.836Z,100.00
2022-10-01T16:14:44.190Z,100.00
2022-10-01T16:18:53.979Z,100.00
2022-10-01T16:23:34.545Z,100.00
2022-10-01T16:28:21.558Z,100.00
2022-10-01T16:32:23.274Z,100.00
2022-10-01T16:36:26.329Z,100.00
2022-10-01T16:40:30.832Z,100.00
2022-10-01T16:44:34.286Z,100.00
2022-10-01T16:48:35.819Z,100.00
2022-10-01T16:52:38.069Z,100.00
2022-10-01T16:56:41.348Z,100.00
2022-10-01T17:00:42.999Z,100.00
2022-10-01T17:04:44.762Z,100.00
2022-10-01T17:08:46.298Z,100.00
2022-10-01T17:12:48.367Z,100.00
2022-10-01T17:16:50.990Z,100.00
2022-10-01T17:20:52.696Z,100.00
2022-10-01T17:24:54.263Z,100.00
2022-10-01T17:28:55.977Z,100.00
2022-10-01T17:33:00.041Z,100.00
2022-10-01T17:37:01.677Z,100.00
2022-10-01T17:41:03.787Z,100.00
2022-10-01T17:45:08.869Z,100.00
2022-10-01T17:49:13.017Z,100.00
2022-10-01T17:53:15.223Z,100.00
2022-10-01T17:57:17.332Z,100.00
2022-10-01T18:01:21.084Z,100.00
2022-10-01T18:05:22.838Z,100.00
2022-10-01T18:09:25.266Z,100.00
2022-10-01T18:13:26.878Z,100.00
2022-10-01T18:17:29.297Z,100.00
2022-10-01T18:21:32.800Z,100.00
2022-10-01T18:25:34.487Z,100.00
2022-10-01T18:29:36.168Z,100.00
2022-10-01T18:33:39.261Z,100.00
2022-10-01T18:37:46.727Z,100.00
2022-10-01T18:41:49.455Z,100.00
2022-10-01T18:46:21.041Z,100.00
2022-10-01T18:50:48.631Z,100.00
2022-10-01T18:55:21.385Z,100.00
2022-10-01T18:59:52.526Z,100.00
2022-10-01T19:04:03.357Z,100.00
2022-10-01T19:08:46.707Z,100.00
2022-10-01T19:13:13.909Z,100.00
2022-10-01T19:18:00.557Z,100.00
2022-10-01T19:22:05.116Z,100.00
2022-10-01T19:26:13.950Z,100.00
2022-10-01T19:30:17.714Z,100.00
2022-10-01T19:34:41.527Z,100.00
2022-10-01T19:38:46.456Z,100.00
2022-10-01T19:43:01.667Z,100.00
2022-10-01T19:47:23.616Z,100.00
2022-10-01T19:51:30.257Z,100.00
2022-10-01T19:55:38.788Z,100.00
2022-10-01T19:59:40.897Z,100.00
2022-10-01T20:04:02.240Z,100.00
2022-10-01T20:08:29.907Z,100.00
2022-10-01T20:12:31.423Z,100.00
2022-10-01T20:16:47.560Z,100.00
2022-10-01T20:21:37.845Z,100.00
2022-10-01T20:26:01.304Z,100.00
2022-10-01T20:30:05.969Z,100.00
2022-10-01T20:34:18.027Z,100.00
2022-10-01T20:38:24.497Z,100.00
2022-10-01T20:42:34.726Z,100.00
2022-10-01T20:46:43.401Z,100.00
2022-10-01T20:50:48.949Z,100.00
2022-10-01T20:54:53.044Z,100.00
2022-10-01T20:59:02.257Z,100.00
2022-10-01T21:03:22.304Z,100.00
2022-10-01T21:07:48.878Z,100.00
2022-10-01T21:11:59.640Z,100.00
2022-10-01T21:16:38.235Z,100.00
2022-10-01T21:21:16.636Z,100.00
2022-10-01T21:25:44.174Z,100.00
2022-10-01T21:30:07.573Z,100.00
2022-10-01T21:34:19.763Z,100.00
2022-10-01T21:38:32.630Z,100.00
2022-10-01T21:43:14.708Z,100.00
2022-10-01T21:47:30.436Z,100.00
2022-10-01T21:51:58.552Z,100.00
2022-10-01T21:56:23.974Z,100.00
2022-10-01T22:00:26.425Z,100.00
2022-10-01T22:04:40.056Z,100.00
2022-10-01T22:09:13.934Z,100.00
2022-10-01T22:13:30.709Z,100.00
2022-10-01T22:17:33.925Z,100.00
2022-10-01T22:21:42.163Z,100.00
2022-10-01T22:25:51.265Z,100.00
2022-10-01T22:30:00.663Z,100.00
2022-10-01T22:34:09.377Z,100.00
2022-10-01T22:38:19.974Z,100.00
2022-10-01T22:42:30.349Z,100.00
2022-10-01T22:46:56.130Z,100.00
2022-10-01T22:51:20.055Z,100.00
2022-10-01T22:55:47.312Z,100.00
2022-10-01T23:00:01.547Z,100.00
2022-10-01T23:04:19.175Z,100.00
2022-10-01T23:08:43.393Z,100.00
2022-10-01T23:13:25.835Z,100.00
2022-10-01T23:17:40.824Z,100.00
2022-10-01T23:22:13.125Z,100.00
2022-10-01T23:26:28.352Z,100.00
2022-10-01T23:31:08.848Z,100.00
2022-10-01T23:35:21.796Z,100.00
2022-10-01T23:39:51.264Z,100.00
2022-10-01T23:43:57.246Z,100.00
2022-10-01T23:48:21.214Z,100.00
2022-10-01T23:52:31.715Z,100.00
2022-10-01T23:56:51.881Z,100.00
